createdAt,value
2023-04-19T00:03:48.098Z,-360.00
2023-04-19T00:09:50.987Z,-396.00
2023-04-19T00:14:25.701Z,-396.00
2023-04-19T00:19:33.215Z,-360.00
2023-04-19T00:24:40.875Z,-396.00
2023-04-19T00:29:49.058Z,-396.00
2023-04-19T00:35:05.686Z,-360.00
2023-04-19T00:40:13.907Z,-360.00
2023-04-19T00:45:34.517Z,-360.00
2023-04-19T00:51:45.500Z,-360.00
2023-04-19T00:55:55.040Z,-360.00
2023-04-19T01:01:40.575Z,-360.00
2023-04-19T01:07:18.004Z,-360.00
2023-04-19T01:11:45.318Z,-360.00
2023-04-19T01:16:53.246Z,-360.00
2023-04-19T01:22:11.991Z,-360.00
2023-04-19T01:27:24.231Z,-360.00
2023-04-19T01:32:38.229Z,-396.00
2023-04-19T01:37:45.608Z,-360.00
2023-04-19T01:43:28.154Z,-324.00
2023-04-19T01:48:43.987Z,-360.00
2023-04-19T01:54:00.163Z,-360.00
2023-04-19T01:59:06.551Z,-360.00
2023-04-19T02:04:49.109Z,-324.00
2023-04-19T02:09:56.804Z,-360.00
2023-04-19T02:15:44.502Z,-324.00
2023-04-19T02:21:26.910Z,-324.00
2023-04-19T02:26:34.445Z,-396.00
2023-04-19T02:31:49.567Z,-360.00
2023-04-19T02:36:57.136Z,-360.00
2023-04-19T02:42:44.771Z,-324.00
2023-04-19T02:47:52.407Z,-360.00
2023-04-19T02:53:16.523Z,-396.00
2023-04-19T02:58:25.442Z,-360.00
2023-04-19T03:03:39.719Z,-360.00
2023-04-19T03:08:53.594Z,-360.00
2023-04-19T03:14:01.683Z,-360.00
2023-04-19T03:19:29.679Z,-360.00
2023-04-19T03:25:08.116Z,-324.00
2023-04-19T03:30:15.950Z,-360.00
2023-04-19T03:35:31.376Z,-360.00
2023-04-19T03:41:21.486Z,-324.00
2023-04-19T03:46:40.285Z,-360.00
2023-04-19T03:52:22.639Z,-324.00
2023-04-19T03:57:37.623Z,-360.00
2023-04-19T04:02:42.286Z,-360.00
2023-04-19T04:08:05.010Z,-360.00
2023-04-19T04:13:12.673Z,-360.00
2023-04-19T04:18:41.474Z,-360.00
2023-04-19T04:23:34.276Z,-360.00
2023-04-19T04:28:42.043Z,-360.00
2023-04-19T04:33:49.829Z,-360.00
2023-04-19T04:39:35.098Z,-324.00
2023-04-19T04:44:51.816Z,-360.00
2023-04-19T04:50:05.811Z,-360.00
2023-04-19T04:55:22.853Z,-360.00
2023-04-19T05:00:45.665Z,-360.00
2023-04-19T05:05:53.418Z,-360.00
2023-04-19T05:11:02.876Z,-360.00
2023-04-19T05:17:04.733Z,-360.00
2023-04-19T05:21:30.486Z,-324.00
2023-04-19T05:26:55.414Z,-360.00
2023-04-19T05:32:08.708Z,-324.00
2023-04-19T05:37:26.703Z,-288.00
2023-04-19T05:42:37.569Z,-288.00
2023-04-19T05:47:51.887Z,-324.00
2023-04-19T05:56:11.062Z,-288.00
2023-04-19T05:58:45.389Z,-288.00
2023-04-19T06:03:53.267Z,-288.00
2023-04-19T06:09:35.618Z,-252.00
2023-04-19T06:14:43.109Z,12564.00
2023-04-19T06:19:50.391Z,13212.00
2023-04-19T06:24:57.673Z,14652.00
2023-04-19T06:30:04.945Z,15732.00
2023-04-19T06:35:12.258Z,15840.00
2023-04-19T06:40:19.311Z,16236.00
2023-04-19T06:45:26.808Z,15156.00
2023-04-19T06:50:34.051Z,18000.00
2023-04-19T06:55:41.306Z,19656.00
2023-04-19T07:00:48.502Z,19908.00
2023-04-19T07:05:55.801Z,19800.00
2023-04-19T07:11:03.047Z,18144.00
2023-04-19T07:16:10.465Z,18072.00
2023-04-19T07:21:17.651Z,18756.00
2023-04-19T07:26:24.925Z,19224.00
2023-04-19T07:31:32.203Z,17856.00
2023-04-19T07:36:39.598Z,17964.00
2023-04-19T07:41:46.662Z,18216.00
2023-04-19T07:46:54.043Z,18468.00
2023-04-19T07:52:01.193Z,19260.00
2023-04-19T07:57:08.528Z,18180.00
2023-04-19T08:02:15.833Z,18288.00
2023-04-19T08:07:23.347Z,19368.00
2023-04-19T08:12:37.318Z,20304.00
2023-04-19T08:17:42.073Z,20520.00
2023-04-19T08:22:45.357Z,20448.00
2023-04-19T08:27:52.521Z,21384.00
2023-04-19T08:32:59.840Z,21132.00
2023-04-19T08:38:07.101Z,20880.00
2023-04-19T08:43:14.426Z,21780.00
2023-04-19T08:48:21.854Z,23796.00
2023-04-19T08:53:29.298Z,24300.00
2023-04-19T08:58:54.946Z,24444.00
2023-04-19T09:04:00.551Z,23400.00
2023-04-19T09:08:58.337Z,25380.00
2023-04-19T09:14:16.762Z,26172.00
2023-04-19T09:19:25.605Z,26964.00
2023-04-19T09:24:57.194Z,27540.00
2023-04-19T09:29:47.173Z,27072.00
2023-04-19T09:35:06.117Z,27468.00
2023-04-19T09:40:20.245Z,27108.00
2023-04-19T09:45:32.689Z,27396.00
2023-04-19T09:51:15.963Z,26748.00
2023-04-19T09:56:29.467Z,25776.00
2023-04-19T10:01:36.936Z,24588.00
2023-04-19T10:06:58.820Z,27720.00
2023-04-19T10:11:54.462Z,27900.00
2023-04-19T10:16:59.634Z,27360.00
2023-04-19T10:22:07.157Z,27252.00
2023-04-19T10:27:14.703Z,27252.00
2023-04-19T10:32:22.125Z,27612.00
2023-04-19T10:37:29.543Z,26604.00
2023-04-19T10:42:37.534Z,27144.00
2023-04-19T10:47:51.516Z,26892.00
2023-04-19T10:53:04.391Z,24912.00
2023-04-19T10:58:12.245Z,26028.00
2023-04-19T11:03:20.082Z,26712.00
2023-04-19T11:08:27.648Z,27144.00
2023-04-19T11:13:38.018Z,26208.00
2023-04-19T11:18:45.837Z,25740.00
2023-04-19T11:23:53.541Z,23832.00
2023-04-19T11:29:01.096Z,27000.00
2023-04-19T11:34:09.543Z,25668.00
2023-04-19T11:39:17.200Z,22860.00
2023-04-19T11:44:24.861Z,22968.00
2023-04-19T11:49:32.347Z,23328.00
2023-04-19T11:54:40.053Z,26640.00
2023-04-19T11:59:47.543Z,25704.00
2023-04-19T12:04:58.419Z,24804.00
2023-04-19T12:10:05.722Z,23688.00
2023-04-19T12:15:17.053Z,25668.00
2023-04-19T12:20:24.422Z,25956.00
2023-04-19T12:25:31.822Z,24264.00
2023-04-19T12:30:39.608Z,22536.00
2023-04-19T12:35:46.874Z,22752.00
2023-04-19T12:40:54.161Z,22680.00
2023-04-19T12:46:01.891Z,22536.00
2023-04-19T12:51:09.043Z,22212.00
2023-04-19T12:56:16.306Z,23292.00
2023-04-19T13:01:23.630Z,20700.00
2023-04-19T13:06:30.647Z,20376.00
2023-04-19T13:11:37.950Z,19944.00
2023-04-19T13:16:45.259Z,18468.00
2023-04-19T13:21:52.441Z,19008.00
2023-04-19T13:26:59.632Z,19476.00
2023-04-19T13:32:06.820Z,19152.00
2023-04-19T13:37:13.973Z,19332.00
2023-04-19T13:42:21.242Z,18684.00
2023-04-19T13:47:28.632Z,19008.00
2023-04-19T13:52:35.845Z,19692.00
2023-04-19T13:57:43.165Z,19980.00
2023-04-19T14:02:52.345Z,18468.00
2023-04-19T14:07:57.701Z,19044.00
2023-04-19T14:13:04.880Z,19368.00
2023-04-19T14:18:12.174Z,18648.00
2023-04-19T14:23:19.264Z,18468.00
2023-04-19T14:28:26.531Z,19872.00
2023-04-19T14:33:33.810Z,21528.00
2023-04-19T14:38:41.087Z,23292.00
2023-04-19T14:43:48.315Z,23976.00
2023-04-19T14:48:55.511Z,23364.00
2023-04-19T14:54:02.765Z,23040.00
2023-04-19T14:59:09.971Z,21600.00
2023-04-19T15:04:17.511Z,18000.00
2023-04-19T15:09:24.675Z,14724.00
2023-04-19T15:14:31.796Z,14616.00
2023-04-19T15:19:39.006Z,14220.00
2023-04-19T15:24:46.165Z,13104.00
2023-04-19T15:29:53.351Z,13896.00
2023-04-19T15:35:00.589Z,12276.00
2023-04-19T15:40:07.752Z,10404.00
2023-04-19T15:45:14.998Z,8640.00
2023-04-19T15:50:22.203Z,7956.00
2023-04-19T15:55:29.426Z,9468.00
2023-04-19T16:00:36.733Z,9216.00
2023-04-19T16:05:44.816Z,8712.00
2023-04-19T16:10:52.155Z,11988.00
2023-04-19T16:15:59.322Z,10440.00
2023-04-19T16:21:06.481Z,9936.00
2023-04-19T16:26:13.745Z,9108.00
2023-04-19T16:31:21.103Z,9396.00
2023-04-19T16:36:28.196Z,8460.00
2023-04-19T16:41:35.377Z,8316.00
2023-04-19T16:46:42.654Z,6768.00
2023-04-19T16:51:50.189Z,5364.00
2023-04-19T16:56:57.421Z,4680.00
2023-04-19T17:02:05.023Z,4824.00
2023-04-19T17:07:12.185Z,3456.00
2023-04-19T17:12:19.421Z,1440.00
2023-04-19T17:17:26.724Z,1368.00
2023-04-19T17:22:33.997Z,6372.00
2023-04-19T17:27:41.220Z,6804.00
2023-04-19T17:32:48.758Z,6228.00
2023-04-19T17:37:56.404Z,5472.00
2023-04-19T17:43:04.184Z,4968.00
2023-04-19T17:48:11.586Z,5184.00
2023-04-19T17:53:19.096Z,4860.00
2023-04-19T17:58:26.808Z,4680.00
2023-04-19T18:03:34.539Z,4644.00
2023-04-19T18:08:42.295Z,4572.00
2023-04-19T18:13:49.748Z,4140.00
2023-04-19T18:18:57.080Z,4068.00
2023-04-19T18:24:04.616Z,4140.00
2023-04-19T18:29:13.385Z,4068.00
2023-04-19T18:34:21.124Z,4212.00
2023-04-19T18:39:29.022Z,4140.00
2023-04-19T18:49:52.742Z,4212.00
2023-04-19T18:54:51.403Z,4068.00
2023-04-19T18:59:58.778Z,4284.00
2023-04-19T19:05:07.267Z,4248.00
2023-04-19T19:10:18.911Z,4284.00
2023-04-19T19:15:22.039Z,4284.00
2023-04-19T19:20:29.656Z,4212.00
2023-04-19T19:25:37.150Z,4176.00
2023-04-19T19:30:44.517Z,4284.00
2023-04-19T19:35:52.196Z,4320.00
2023-04-19T19:41:49.038Z,4320.00
2023-04-19T19:46:08.433Z,4320.00
2023-04-19T19:51:47.640Z,4392.00
2023-04-19T19:56:24.531Z,4356.00
2023-04-19T20:01:31.884Z,4248.00
2023-04-19T20:07:24.876Z,4284.00
2023-04-19T20:11:46.956Z,4248.00
2023-04-19T20:16:54.650Z,4284.00
2023-04-19T20:22:02.357Z,4392.00
2023-04-19T20:27:09.969Z,4356.00
2023-04-19T20:32:17.762Z,4356.00
2023-04-19T20:37:25.406Z,4356.00
2023-04-19T20:42:33.154Z,4320.00
2023-04-19T20:47:40.558Z,4176.00
2023-04-19T20:52:47.995Z,4140.00
2023-04-19T20:57:55.507Z,4140.00
2023-04-19T21:03:03.072Z,4176.00
2023-04-19T21:08:10.185Z,4176.00
2023-04-19T21:13:17.468Z,3780.00
2023-04-19T21:18:24.723Z,3852.00
2023-04-19T21:23:32.227Z,3852.00
2023-04-19T21:28:39.549Z,3780.00
2023-04-19T21:33:46.794Z,4392.00
2023-04-19T21:38:53.969Z,4320.00
2023-04-19T21:44:01.311Z,4212.00
2023-04-19T21:49:08.650Z,4356.00
2023-04-19T21:54:26.474Z,4212.00
2023-04-19T21:59:23.151Z,4140.00
2023-04-19T22:04:30.290Z,4392.00
2023-04-19T22:09:37.568Z,4428.00
2023-04-19T22:14:44.814Z,4356.00
2023-04-19T22:19:52.061Z,5256.00
2023-04-19T22:24:59.541Z,5328.00
2023-04-19T22:30:06.751Z,5472.00
2023-04-19T22:35:13.921Z,5508.00
2023-04-19T22:40:21.132Z,5328.00
2023-04-19T22:45:28.437Z,5328.00
2023-04-19T22:50:35.771Z,5508.00
2023-04-19T22:55:43.032Z,5580.00
2023-04-19T23:00:50.251Z,5292.00
2023-04-19T23:05:57.482Z,5292.00
2023-04-19T23:11:04.730Z,5148.00
2023-04-19T23:16:12.112Z,4824.00
2023-04-19T23:21:19.306Z,5220.00
2023-04-19T23:26:26.563Z,4896.00
2023-04-19T23:31:34.157Z,-360.00
2023-04-19T23:36:46.282Z,-360.00
2023-04-19T23:42:09.963Z,-360.00
2023-04-19T23:47:24.254Z,-360.00
2023-04-19T23:52:31.847Z,-360.00
2023-04-19T23:57:40.936Z,-360.00
